sensor_id;sensor_type;location;lat;lon;timestamp;P1;durP1;ratioP1;P2;durP2;ratioP2
9884;SDS011;4981;50.966;4.842;2022-11-20T00:00:21;26.57;;;19.93;;
9884;SDS011;4981;50.966;4.842;2022-11-20T00:02:48;23.60;;;18.10;;
9884;SDS011;4981;50.966;4.842;2022-11-20T00:05:16;22.00;;;16.43;;
9884;SDS011;4981;50.966;4.842;2022-11-20T00:07:43;25.70;;;18.13;;
9884;SDS011;4981;50.966;4.842;2022-11-20T00:10:10;24.90;;;17.77;;
9884;SDS011;4981;50.966;4.842;2022-11-20T00:12:37;24.67;;;17.93;;
9884;SDS011;4981;50.966;4.842;2022-11-20T00:15:06;24.07;;;17.40;;
9884;SDS011;4981;50.966;4.842;2022-11-20T00:17:35;21.80;;;16.57;;
9884;SDS011;4981;50.966;4.842;2022-11-20T00:20:02;25.20;;;18.67;;
9884;SDS011;4981;50.966;4.842;2022-11-20T00:22:30;22.73;;;17.13;;
9884;SDS011;4981;50.966;4.842;2022-11-20T00:24:57;25.70;;;18.60;;
9884;SDS011;4981;50.966;4.842;2022-11-20T00:27:24;24.47;;;18.80;;
9884;SDS011;4981;50.966;4.842;2022-11-20T00:29:51;25.20;;;18.50;;
9884;SDS011;4981;50.966;4.842;2022-11-20T00:32:19;26.17;;;18.83;;
9884;SDS011;4981;50.966;4.842;2022-11-20T00:34:46;26.73;;;20.43;;
9884;SDS011;4981;50.966;4.842;2022-11-20T00:37:13;26.33;;;19.33;;
9884;SDS011;4981;50.966;4.842;2022-11-20T00:39:40;25.47;;;18.37;;
9884;SDS011;4981;50.966;4.842;2022-11-20T00:42:08;27.43;;;18.20;;
9884;SDS011;4981;50.966;4.842;2022-11-20T00:44:35;25.43;;;18.63;;
9884;SDS011;4981;50.966;4.842;2022-11-20T00:47:02;23.80;;;18.07;;
9884;SDS011;4981;50.966;4.842;2022-11-20T00:49:30;22.93;;;18.23;;
9884;SDS011;4981;50.966;4.842;2022-11-20T00:51:57;24.20;;;19.07;;
9884;SDS011;4981;50.966;4.842;2022-11-20T00:54:24;23.73;;;19.27;;
9884;SDS011;4981;50.966;4.842;2022-11-20T00:56:52;24.47;;;18.23;;
9884;SDS011;4981;50.966;4.842;2022-11-20T00:59:19;27.47;;;19.30;;
9884;SDS011;4981;50.966;4.842;2022-11-20T01:01:46;26.97;;;19.60;;
9884;SDS011;4981;50.966;4.842;2022-11-20T01:04:14;24.97;;;19.00;;
9884;SDS011;4981;50.966;4.842;2022-11-20T01:06:42;29.87;;;19.63;;
9884;SDS011;4981;50.966;4.842;2022-11-20T01:09:10;25.17;;;17.90;;
9884;SDS011;4981;50.966;4.842;2022-11-20T01:11:39;25.73;;;18.60;;
9884;SDS011;4981;50.966;4.842;2022-11-20T01:14:09;26.00;;;18.10;;
9884;SDS011;4981;50.966;4.842;2022-11-20T01:16:39;25.70;;;19.37;;
9884;SDS011;4981;50.966;4.842;2022-11-20T01:19:09;26.53;;;18.10;;
9884;SDS011;4981;50.966;4.842;2022-11-20T01:21:39;23.90;;;17.60;;
9884;SDS011;4981;50.966;4.842;2022-11-20T01:24:10;27.67;;;18.80;;
9884;SDS011;4981;50.966;4.842;2022-11-20T01:26:39;25.53;;;18.80;;
9884;SDS011;4981;50.966;4.842;2022-11-20T01:29:07;25.03;;;17.70;;
9884;SDS011;4981;50.966;4.842;2022-11-20T01:31:37;25.23;;;18.83;;
9884;SDS011;4981;50.966;4.842;2022-11-20T01:34:06;25.03;;;18.10;;
9884;SDS011;4981;50.966;4.842;2022-11-20T01:36:37;23.43;;;17.37;;
9884;SDS011;4981;50.966;4.842;2022-11-20T01:39:05;23.87;;;17.33;;
9884;SDS011;4981;50.966;4.842;2022-11-20T01:41:36;24.87;;;18.60;;
9884;SDS011;4981;50.966;4.842;2022-11-20T01:44:21;22.33;;;16.57;;
9884;SDS011;4981;50.966;4.842;2022-11-20T01:47:09;25.67;;;17.37;;
9884;SDS011;4981;50.966;4.842;2022-11-20T01:49:40;23.77;;;17.53;;
9884;SDS011;4981;50.966;4.842;2022-11-20T01:52:14;21.80;;;16.90;;
9884;SDS011;4981;50.966;4.842;2022-11-20T01:54:43;23.80;;;17.33;;
9884;SDS011;4981;50.966;4.842;2022-11-20T01:57:15;23.77;;;17.13;;
9884;SDS011;4981;50.966;4.842;2022-11-20T01:59:44;22.23;;;16.07;;
9884;SDS011;4981;50.966;4.842;2022-11-20T02:02:15;21.97;;;16.87;;
9884;SDS011;4981;50.966;4.842;2022-11-20T02:04:42;24.80;;;17.13;;
9884;SDS011;4981;50.966;4.842;2022-11-20T02:07:10;24.33;;;17.33;;
9884;SDS011;4981;50.966;4.842;2022-11-20T02:09:38;21.83;;;16.23;;
9884;SDS011;4981;50.966;4.842;2022-11-20T02:12:05;23.13;;;17.17;;
9884;SDS011;4981;50.966;4.842;2022-11-20T02:14:54;22.20;;;16.60;;
9884;SDS011;4981;50.966;4.842;2022-11-20T02:17:20;22.30;;;16.53;;
9884;SDS011;4981;50.966;4.842;2022-11-20T02:19:47;26.77;;;17.17;;
9884;SDS011;4981;50.966;4.842;2022-11-20T02:22:16;23.47;;;16.50;;
9884;SDS011;4981;50.966;4.842;2022-11-20T02:24:49;23.60;;;17.53;;
9884;SDS011;4981;50.966;4.842;2022-11-20T02:27:17;24.07;;;17.27;;
9884;SDS011;4981;50.966;4.842;2022-11-20T02:29:46;22.23;;;17.13;;
9884;SDS011;4981;50.966;4.842;2022-11-20T02:32:18;22.77;;;16.67;;
9884;SDS011;4981;50.966;4.842;2022-11-20T02:34:46;22.97;;;17.03;;
9884;SDS011;4981;50.966;4.842;2022-11-20T02:37:12;22.97;;;16.73;;
9884;SDS011;4981;50.966;4.842;2022-11-20T02:39:41;21.77;;;17.00;;
9884;SDS011;4981;50.966;4.842;2022-11-20T02:42:11;24.97;;;16.73;;
9884;SDS011;4981;50.966;4.842;2022-11-20T02:44:37;22.73;;;17.57;;
9884;SDS011;4981;50.966;4.842;2022-11-20T02:47:05;25.27;;;17.53;;
9884;SDS011;4981;50.966;4.842;2022-11-20T02:49:32;21.63;;;16.77;;
9884;SDS011;4981;50.966;4.842;2022-11-20T02:51:59;23.43;;;16.73;;
9884;SDS011;4981;50.966;4.842;2022-11-20T02:54:26;23.83;;;17.20;;
9884;SDS011;4981;50.966;4.842;2022-11-20T02:56:53;26.40;;;17.70;;
9884;SDS011;4981;50.966;4.842;2022-11-20T02:59:22;24.00;;;16.93;;
9884;SDS011;4981;50.966;4.842;2022-11-20T03:01:49;23.97;;;17.53;;
9884;SDS011;4981;50.966;4.842;2022-11-20T03:04:16;22.80;;;17.60;;
9884;SDS011;4981;50.966;4.842;2022-11-20T03:06:44;24.07;;;17.63;;
9884;SDS011;4981;50.966;4.842;2022-11-20T03:09:11;23.97;;;17.57;;
9884;SDS011;4981;50.966;4.842;2022-11-20T03:11:38;24.27;;;17.63;;
9884;SDS011;4981;50.966;4.842;2022-11-20T03:14:06;23.97;;;17.53;;
9884;SDS011;4981;50.966;4.842;2022-11-20T03:16:35;23.30;;;17.90;;
9884;SDS011;4981;50.966;4.842;2022-11-20T03:19:02;24.03;;;17.10;;
9884;SDS011;4981;50.966;4.842;2022-11-20T03:21:29;24.70;;;17.60;;
9884;SDS011;4981;50.966;4.842;2022-11-20T03:23:56;22.73;;;17.73;;
9884;SDS011;4981;50.966;4.842;2022-11-20T03:26:25;25.17;;;18.40;;
9884;SDS011;4981;50.966;4.842;2022-11-20T03:28:53;24.23;;;17.73;;
9884;SDS011;4981;50.966;4.842;2022-11-20T03:31:23;24.80;;;18.10;;
9884;SDS011;4981;50.966;4.842;2022-11-20T03:33:53;23.17;;;16.77;;
9884;SDS011;4981;50.966;4.842;2022-11-20T03:36:20;26.83;;;18.03;;
9884;SDS011;4981;50.966;4.842;2022-11-20T03:38:48;23.53;;;17.97;;
9884;SDS011;4981;50.966;4.842;2022-11-20T03:41:17;24.43;;;17.40;;
9884;SDS011;4981;50.966;4.842;2022-11-20T03:43:47;26.60;;;17.80;;
9884;SDS011;4981;50.966;4.842;2022-11-20T03:46:15;24.57;;;17.20;;
9884;SDS011;4981;50.966;4.842;2022-11-20T03:48:43;23.57;;;17.63;;
9884;SDS011;4981;50.966;4.842;2022-11-20T03:51:12;22.33;;;17.20;;
9884;SDS011;4981;50.966;4.842;2022-11-20T03:53:41;22.90;;;17.43;;
9884;SDS011;4981;50.966;4.842;2022-11-20T03:56:08;23.50;;;17.63;;
9884;SDS011;4981;50.966;4.842;2022-11-20T03:58:36;23.87;;;17.70;;
9884;SDS011;4981;50.966;4.842;2022-11-20T04:01:06;22.87;;;18.10;;
9884;SDS011;4981;50.966;4.842;2022-11-20T04:03:34;24.03;;;17.17;;
9884;SDS011;4981;50.966;4.842;2022-11-20T04:06:02;26.27;;;18.17;;
9884;SDS011;4981;50.966;4.842;2022-11-20T04:08:31;25.37;;;18.10;;
9884;SDS011;4981;50.966;4.842;2022-11-20T04:11:07;25.57;;;18.77;;
9884;SDS011;4981;50.966;4.842;2022-11-20T04:13:36;26.07;;;17.90;;
9884;SDS011;4981;50.966;4.842;2022-11-20T04:16:03;26.00;;;18.87;;
9884;SDS011;4981;50.966;4.842;2022-11-20T04:18:31;25.37;;;18.87;;
9884;SDS011;4981;50.966;4.842;2022-11-20T04:20:59;24.40;;;18.10;;
9884;SDS011;4981;50.966;4.842;2022-11-20T04:23:27;25.93;;;18.10;;
9884;SDS011;4981;50.966;4.842;2022-11-20T04:25:59;29.53;;;19.27;;
9884;SDS011;4981;50.966;4.842;2022-11-20T04:28:27;28.13;;;19.67;;
9884;SDS011;4981;50.966;4.842;2022-11-20T04:31:00;32.20;;;20.17;;
9884;SDS011;4981;50.966;4.842;2022-11-20T04:33:28;29.20;;;20.47;;
9884;SDS011;4981;50.966;4.842;2022-11-20T04:35:59;30.23;;;20.37;;
9884;SDS011;4981;50.966;4.842;2022-11-20T04:38:30;33.13;;;20.70;;
9884;SDS011;4981;50.966;4.842;2022-11-20T04:41:00;31.77;;;20.70;;
9884;SDS011;4981;50.966;4.842;2022-11-20T04:43:28;36.30;;;20.90;;
9884;SDS011;4981;50.966;4.842;2022-11-20T04:45:57;32.90;;;21.10;;
9884;SDS011;4981;50.966;4.842;2022-11-20T04:48:25;38.50;;;23.33;;
9884;SDS011;4981;50.966;4.842;2022-11-20T04:50:53;34.13;;;22.37;;
9884;SDS011;4981;50.966;4.842;2022-11-20T04:53:20;39.60;;;23.33;;
9884;SDS011;4981;50.966;4.842;2022-11-20T04:55:48;40.40;;;23.53;;
9884;SDS011;4981;50.966;4.842;2022-11-20T04:58:17;41.67;;;23.00;;
9884;SDS011;4981;50.966;4.842;2022-11-20T05:00:44;35.80;;;22.23;;
9884;SDS011;4981;50.966;4.842;2022-11-20T05:03:11;36.60;;;22.37;;
9884;SDS011;4981;50.966;4.842;2022-11-20T05:05:38;36.93;;;22.70;;
9884;SDS011;4981;50.966;4.842;2022-11-20T05:08:05;44.47;;;24.07;;
9884;SDS011;4981;50.966;4.842;2022-11-20T05:10:32;42.53;;;24.70;;
9884;SDS011;4981;50.966;4.842;2022-11-20T05:12:59;39.90;;;23.43;;
9884;SDS011;4981;50.966;4.842;2022-11-20T05:15:28;41.37;;;23.40;;
9884;SDS011;4981;50.966;4.842;2022-11-20T05:17:55;39.30;;;24.40;;
9884;SDS011;4981;50.966;4.842;2022-11-20T05:20:23;44.13;;;24.63;;
9884;SDS011;4981;50.966;4.842;2022-11-20T05:22:50;43.67;;;24.77;;
9884;SDS011;4981;50.966;4.842;2022-11-20T05:25:17;44.63;;;24.83;;
9884;SDS011;4981;50.966;4.842;2022-11-20T05:27:44;41.83;;;24.03;;
9884;SDS011;4981;50.966;4.842;2022-11-20T05:30:12;39.57;;;24.60;;
9884;SDS011;4981;50.966;4.842;2022-11-20T05:32:41;42.13;;;24.80;;
9884;SDS011;4981;50.966;4.842;2022-11-20T05:35:08;39.80;;;23.47;;
9884;SDS011;4981;50.966;4.842;2022-11-20T05:37:35;38.10;;;22.57;;
9884;SDS011;4981;50.966;4.842;2022-11-20T05:40:02;42.40;;;24.93;;
9884;SDS011;4981;50.966;4.842;2022-11-20T05:42:30;37.83;;;22.83;;
9884;SDS011;4981;50.966;4.842;2022-11-20T05:44:57;39.87;;;24.47;;
9884;SDS011;4981;50.966;4.842;2022-11-20T05:47:25;36.90;;;22.87;;
9884;SDS011;4981;50.966;4.842;2022-11-20T05:49:55;38.63;;;23.50;;
9884;SDS011;4981;50.966;4.842;2022-11-20T05:52:22;42.93;;;25.00;;
9884;SDS011;4981;50.966;4.842;2022-11-20T05:54:49;37.83;;;23.97;;
9884;SDS011;4981;50.966;4.842;2022-11-20T05:57:16;39.70;;;23.37;;
9884;SDS011;4981;50.966;4.842;2022-11-20T05:59:43;40.27;;;23.13;;
9884;SDS011;4981;50.966;4.842;2022-11-20T06:02:11;37.17;;;23.00;;
9884;SDS011;4981;50.966;4.842;2022-11-20T06:04:38;37.93;;;22.27;;
9884;SDS011;4981;50.966;4.842;2022-11-20T06:07:06;38.63;;;22.40;;
9884;SDS011;4981;50.966;4.842;2022-11-20T06:09:34;39.50;;;23.00;;
9884;SDS011;4981;50.966;4.842;2022-11-20T06:12:01;39.83;;;23.10;;
9884;SDS011;4981;50.966;4.842;2022-11-20T06:14:28;37.93;;;23.20;;
9884;SDS011;4981;50.966;4.842;2022-11-20T06:16:56;39.33;;;23.23;;
9884;SDS011;4981;50.966;4.842;2022-11-20T06:19:22;35.17;;;22.40;;
9884;SDS011;4981;50.966;4.842;2022-11-20T06:21:49;38.07;;;22.07;;
9884;SDS011;4981;50.966;4.842;2022-11-20T06:24:18;35.77;;;21.37;;
9884;SDS011;4981;50.966;4.842;2022-11-20T06:26:45;37.20;;;22.63;;
9884;SDS011;4981;50.966;4.842;2022-11-20T06:29:12;34.13;;;21.50;;
9884;SDS011;4981;50.966;4.842;2022-11-20T06:31:39;35.33;;;21.07;;
9884;SDS011;4981;50.966;4.842;2022-11-20T06:34:07;32.30;;;20.73;;
9884;SDS011;4981;50.966;4.842;2022-11-20T06:36:35;36.10;;;22.37;;
9884;SDS011;4981;50.966;4.842;2022-11-20T06:39:02;35.47;;;23.20;;
9884;SDS011;4981;50.966;4.842;2022-11-20T06:41:31;38.83;;;20.93;;
9884;SDS011;4981;50.966;4.842;2022-11-20T06:43:59;34.17;;;20.63;;
9884;SDS011;4981;50.966;4.842;2022-11-20T06:46:26;34.30;;;21.13;;
9884;SDS011;4981;50.966;4.842;2022-11-20T06:48:54;34.80;;;21.10;;
9884;SDS011;4981;50.966;4.842;2022-11-20T06:51:21;39.87;;;21.87;;
9884;SDS011;4981;50.966;4.842;2022-11-20T06:53:48;34.90;;;22.20;;
9884;SDS011;4981;50.966;4.842;2022-11-20T06:56:15;36.47;;;21.70;;
9884;SDS011;4981;50.966;4.842;2022-11-20T06:58:43;33.03;;;20.83;;
9884;SDS011;4981;50.966;4.842;2022-11-20T07:01:13;34.03;;;21.27;;
9884;SDS011;4981;50.966;4.842;2022-11-20T07:03:41;34.37;;;20.80;;
9884;SDS011;4981;50.966;4.842;2022-11-20T07:06:09;29.70;;;19.87;;
9884;SDS011;4981;50.966;4.842;2022-11-20T07:08:37;35.37;;;21.27;;
9884;SDS011;4981;50.966;4.842;2022-11-20T07:11:05;33.50;;;20.77;;
9884;SDS011;4981;50.966;4.842;2022-11-20T07:13:33;38.33;;;21.60;;
9884;SDS011;4981;50.966;4.842;2022-11-20T07:16:03;41.50;;;22.07;;
9884;SDS011;4981;50.966;4.842;2022-11-20T07:18:31;46.40;;;29.37;;
9884;SDS011;4981;50.966;4.842;2022-11-20T07:21:00;42.77;;;26.27;;
9884;SDS011;4981;50.966;4.842;2022-11-20T07:23:27;36.47;;;23.30;;
9884;SDS011;4981;50.966;4.842;2022-11-20T07:25:54;36.67;;;21.20;;
9884;SDS011;4981;50.966;4.842;2022-11-20T07:28:22;31.70;;;20.83;;
9884;SDS011;4981;50.966;4.842;2022-11-20T07:30:49;43.23;;;28.17;;
9884;SDS011;4981;50.966;4.842;2022-11-20T07:33:18;35.37;;;22.70;;
9884;SDS011;4981;50.966;4.842;2022-11-20T07:35:45;45.70;;;23.83;;
9884;SDS011;4981;50.966;4.842;2022-11-20T07:38:13;34.47;;;22.60;;
9884;SDS011;4981;50.966;4.842;2022-11-20T07:40:40;39.03;;;23.57;;
9884;SDS011;4981;50.966;4.842;2022-11-20T07:43:07;37.30;;;23.23;;
9884;SDS011;4981;50.966;4.842;2022-11-20T07:45:34;39.60;;;23.33;;
9884;SDS011;4981;50.966;4.842;2022-11-20T07:48:02;35.90;;;22.07;;
9884;SDS011;4981;50.966;4.842;2022-11-20T07:50:31;38.93;;;21.47;;
9884;SDS011;4981;50.966;4.842;2022-11-20T07:53:02;38.13;;;22.13;;
9884;SDS011;4981;50.966;4.842;2022-11-20T07:55:29;35.53;;;22.23;;
9884;SDS011;4981;50.966;4.842;2022-11-20T07:57:56;36.07;;;22.17;;
9884;SDS011;4981;50.966;4.842;2022-11-20T08:00:24;36.97;;;21.73;;
9884;SDS011;4981;50.966;4.842;2022-11-20T08:02:52;40.13;;;21.63;;
9884;SDS011;4981;50.966;4.842;2022-11-20T08:05:19;44.27;;;23.87;;
9884;SDS011;4981;50.966;4.842;2022-11-20T08:07:48;38.20;;;22.03;;
9884;SDS011;4981;50.966;4.842;2022-11-20T08:10:15;37.90;;;22.10;;
9884;SDS011;4981;50.966;4.842;2022-11-20T08:12:43;41.47;;;23.20;;
9884;SDS011;4981;50.966;4.842;2022-11-20T08:15:27;40.77;;;21.27;;
9884;SDS011;4981;50.966;4.842;2022-11-20T08:17:58;41.77;;;22.97;;
9884;SDS011;4981;50.966;4.842;2022-11-20T08:20:26;43.33;;;22.60;;
9884;SDS011;4981;50.966;4.842;2022-11-20T08:22:58;41.67;;;22.37;;
9884;SDS011;4981;50.966;4.842;2022-11-20T08:25:27;44.03;;;23.17;;
9884;SDS011;4981;50.966;4.842;2022-11-20T08:27:56;48.27;;;24.43;;
9884;SDS011;4981;50.966;4.842;2022-11-20T08:30:24;44.90;;;23.40;;
9884;SDS011;4981;50.966;4.842;2022-11-20T08:32:52;41.43;;;23.07;;
9884;SDS011;4981;50.966;4.842;2022-11-20T08:35:20;41.40;;;23.47;;
9884;SDS011;4981;50.966;4.842;2022-11-20T08:37:47;43.70;;;24.03;;
9884;SDS011;4981;50.966;4.842;2022-11-20T08:40:16;43.10;;;22.90;;
9884;SDS011;4981;50.966;4.842;2022-11-20T08:42:46;47.47;;;24.13;;
9884;SDS011;4981;50.966;4.842;2022-11-20T08:45:14;47.77;;;24.57;;
9884;SDS011;4981;50.966;4.842;2022-11-20T08:47:41;44.37;;;24.57;;
9884;SDS011;4981;50.966;4.842;2022-11-20T08:50:09;47.20;;;24.43;;
9884;SDS011;4981;50.966;4.842;2022-11-20T08:52:36;47.77;;;24.83;;
9884;SDS011;4981;50.966;4.842;2022-11-20T08:55:04;50.23;;;25.30;;
9884;SDS011;4981;50.966;4.842;2022-11-20T08:57:34;45.90;;;24.90;;
9884;SDS011;4981;50.966;4.842;2022-11-20T09:00:02;47.00;;;23.37;;
9884;SDS011;4981;50.966;4.842;2022-11-20T09:02:31;42.73;;;23.13;;
9884;SDS011;4981;50.966;4.842;2022-11-20T09:04:59;46.73;;;25.47;;
9884;SDS011;4981;50.966;4.842;2022-11-20T09:07:27;48.10;;;24.53;;
9884;SDS011;4981;50.966;4.842;2022-11-20T09:09:54;50.13;;;25.57;;
9884;SDS011;4981;50.966;4.842;2022-11-20T09:12:22;51.20;;;24.87;;
9884;SDS011;4981;50.966;4.842;2022-11-20T09:14:51;48.93;;;25.70;;
9884;SDS011;4981;50.966;4.842;2022-11-20T09:17:18;50.63;;;25.97;;
9884;SDS011;4981;50.966;4.842;2022-11-20T09:19:45;48.63;;;24.63;;
9884;SDS011;4981;50.966;4.842;2022-11-20T09:22:13;50.77;;;25.83;;
9884;SDS011;4981;50.966;4.842;2022-11-20T09:24:40;54.27;;;27.03;;
9884;SDS011;4981;50.966;4.842;2022-11-20T09:27:08;51.47;;;26.70;;
9884;SDS011;4981;50.966;4.842;2022-11-20T09:29:35;53.63;;;26.07;;
9884;SDS011;4981;50.966;4.842;2022-11-20T09:32:04;50.17;;;26.17;;
9884;SDS011;4981;50.966;4.842;2022-11-20T09:34:31;49.63;;;25.23;;
9884;SDS011;4981;50.966;4.842;2022-11-20T09:36:58;47.03;;;24.90;;
9884;SDS011;4981;50.966;4.842;2022-11-20T09:39:26;51.73;;;26.23;;
9884;SDS011;4981;50.966;4.842;2022-11-20T09:42:04;52.80;;;25.83;;
9884;SDS011;4981;50.966;4.842;2022-11-20T09:44:48;51.40;;;25.53;;
9884;SDS011;4981;50.966;4.842;2022-11-20T09:47:32;47.93;;;24.87;;
9884;SDS011;4981;50.966;4.842;2022-11-20T09:50:16;60.33;;;26.03;;
9884;SDS011;4981;50.966;4.842;2022-11-20T09:52:55;54.67;;;25.77;;
9884;SDS011;4981;50.966;4.842;2022-11-20T09:55:35;51.93;;;27.07;;
9884;SDS011;4981;50.966;4.842;2022-11-20T09:58:04;57.33;;;26.10;;
9884;SDS011;4981;50.966;4.842;2022-11-20T10:00:34;54.63;;;26.47;;
9884;SDS011;4981;50.966;4.842;2022-11-20T10:03:06;57.70;;;26.50;;
9884;SDS011;4981;50.966;4.842;2022-11-20T10:05:40;54.33;;;26.10;;
9884;SDS011;4981;50.966;4.842;2022-11-20T10:08:14;55.97;;;25.77;;
9884;SDS011;4981;50.966;4.842;2022-11-20T10:10:46;66.87;;;32.70;;
9884;SDS011;4981;50.966;4.842;2022-11-20T10:13:20;52.60;;;24.80;;
9884;SDS011;4981;50.966;4.842;2022-11-20T10:15:59;52.03;;;26.87;;
9884;SDS011;4981;50.966;4.842;2022-11-20T10:18:41;50.87;;;24.40;;
9884;SDS011;4981;50.966;4.842;2022-11-20T10:21:18;49.60;;;24.40;;
9884;SDS011;4981;50.966;4.842;2022-11-20T10:24:00;50.60;;;23.80;;
9884;SDS011;4981;50.966;4.842;2022-11-20T10:26:47;58.07;;;26.23;;
9884;SDS011;4981;50.966;4.842;2022-11-20T10:29:19;48.67;;;24.17;;
9884;SDS011;4981;50.966;4.842;2022-11-20T10:31:56;50.43;;;23.40;;
9884;SDS011;4981;50.966;4.842;2022-11-20T10:34:31;47.17;;;25.07;;
9884;SDS011;4981;50.966;4.842;2022-11-20T10:37:02;51.57;;;24.77;;
9884;SDS011;4981;50.966;4.842;2022-11-20T10:39:36;49.40;;;24.00;;
9884;SDS011;4981;50.966;4.842;2022-11-20T10:42:11;48.53;;;24.03;;
9884;SDS011;4981;50.966;4.842;2022-11-20T10:44:42;49.13;;;23.13;;
9884;SDS011;4981;50.966;4.842;2022-11-20T10:47:29;47.43;;;22.23;;
9884;SDS011;4981;50.966;4.842;2022-11-20T10:50:01;54.27;;;24.63;;
9884;SDS011;4981;50.966;4.842;2022-11-20T10:52:33;44.57;;;22.47;;
9884;SDS011;4981;50.966;4.842;2022-11-20T10:55:12;45.33;;;23.30;;
9884;SDS011;4981;50.966;4.842;2022-11-20T10:57:52;43.53;;;21.80;;
9884;SDS011;4981;50.966;4.842;2022-11-20T11:00:26;42.13;;;22.20;;
9884;SDS011;4981;50.966;4.842;2022-11-20T11:02:56;44.43;;;22.60;;
9884;SDS011;4981;50.966;4.842;2022-11-20T11:05:33;43.63;;;22.20;;
9884;SDS011;4981;50.966;4.842;2022-11-20T11:08:05;40.83;;;22.07;;
9884;SDS011;4981;50.966;4.842;2022-11-20T11:10:39;47.70;;;23.37;;
9884;SDS011;4981;50.966;4.842;2022-11-20T11:13:19;46.13;;;22.90;;
9884;SDS011;4981;50.966;4.842;2022-11-20T11:15:47;40.07;;;21.57;;
9884;SDS011;4981;50.966;4.842;2022-11-20T11:18:22;51.00;;;28.33;;
9884;SDS011;4981;50.966;4.842;2022-11-20T11:20:53;66.20;;;35.83;;
9884;SDS011;4981;50.966;4.842;2022-11-20T11:23:32;41.93;;;22.60;;
9884;SDS011;4981;50.966;4.842;2022-11-20T11:26:02;39.40;;;20.80;;
9884;SDS011;4981;50.966;4.842;2022-11-20T11:28:30;32.20;;;21.90;;
9884;SDS011;4981;50.966;4.842;2022-11-20T11:30:59;38.37;;;22.57;;
9884;SDS011;4981;50.966;4.842;2022-11-20T11:33:27;34.10;;;17.57;;
9884;SDS011;4981;50.966;4.842;2022-11-20T11:35:58;35.10;;;20.57;;
9884;SDS011;4981;50.966;4.842;2022-11-20T11:38:28;31.90;;;17.87;;
9884;SDS011;4981;50.966;4.842;2022-11-20T11:40:57;27.53;;;15.70;;
9884;SDS011;4981;50.966;4.842;2022-11-20T11:43:25;23.93;;;15.13;;
9884;SDS011;4981;50.966;4.842;2022-11-20T11:46:23;26.00;;;16.73;;
9884;SDS011;4981;50.966;4.842;2022-11-20T11:48:57;24.93;;;14.47;;
9884;SDS011;4981;50.966;4.842;2022-11-20T11:51:28;24.37;;;15.03;;
9884;SDS011;4981;50.966;4.842;2022-11-20T11:53:59;25.10;;;14.47;;
9884;SDS011;4981;50.966;4.842;2022-11-20T11:56:30;31.13;;;15.37;;
9884;SDS011;4981;50.966;4.842;2022-11-20T11:59:00;17.77;;;11.50;;
9884;SDS011;4981;50.966;4.842;2022-11-20T12:01:33;20.93;;;10.40;;
9884;SDS011;4981;50.966;4.842;2022-11-20T12:04:09;14.83;;;7.67;;
9884;SDS011;4981;50.966;4.842;2022-11-20T12:06:45;12.77;;;6.37;;
9884;SDS011;4981;50.966;4.842;2022-11-20T12:09:35;11.53;;;7.70;;
9884;SDS011;4981;50.966;4.842;2022-11-20T12:12:05;13.63;;;9.03;;
9884;SDS011;4981;50.966;4.842;2022-11-20T12:14:37;9.97;;;6.17;;
9884;SDS011;4981;50.966;4.842;2022-11-20T12:17:07;10.00;;;6.07;;
9884;SDS011;4981;50.966;4.842;2022-11-20T12:19:37;7.93;;;3.70;;
9884;SDS011;4981;50.966;4.842;2022-11-20T12:22:07;10.27;;;5.80;;
9884;SDS011;4981;50.966;4.842;2022-11-20T12:24:45;8.07;;;4.23;;
9884;SDS011;4981;50.966;4.842;2022-11-20T12:30:17;3.70;;;2.40;;
9884;SDS011;4981;50.966;4.842;2022-11-20T12:32:52;10.80;;;3.73;;
9884;SDS011;4981;50.966;4.842;2022-11-20T12:35:33;8.50;;;3.20;;
9884;SDS011;4981;50.966;4.842;2022-11-20T12:38:15;6.77;;;3.37;;
9884;SDS011;4981;50.966;4.842;2022-11-20T12:41:08;9.53;;;5.07;;
9884;SDS011;4981;50.966;4.842;2022-11-20T12:44:04;7.20;;;2.87;;
9884;SDS011;4981;50.966;4.842;2022-11-20T12:47:00;7.50;;;2.73;;
9884;SDS011;4981;50.966;4.842;2022-11-20T12:49:41;7.00;;;2.67;;
9884;SDS011;4981;50.966;4.842;2022-11-20T12:52:24;6.57;;;2.60;;
9884;SDS011;4981;50.966;4.842;2022-11-20T12:55:04;6.37;;;2.60;;
9884;SDS011;4981;50.966;4.842;2022-11-20T12:57:44;6.87;;;2.23;;
9884;SDS011;4981;50.966;4.842;2022-11-20T13:00:16;6.77;;;2.40;;
9884;SDS011;4981;50.966;4.842;2022-11-20T13:02:55;6.10;;;2.53;;
9884;SDS011;4981;50.966;4.842;2022-11-20T13:05:36;8.93;;;2.83;;
9884;SDS011;4981;50.966;4.842;2022-11-20T13:08:18;4.80;;;2.40;;
9884;SDS011;4981;50.966;4.842;2022-11-20T13:10:51;7.30;;;2.30;;
9884;SDS011;4981;50.966;4.842;2022-11-20T13:13:25;5.87;;;2.50;;
9884;SDS011;4981;50.966;4.842;2022-11-20T13:16:02;14.90;;;7.20;;
9884;SDS011;4981;50.966;4.842;2022-11-20T13:18:36;7.40;;;3.50;;
9884;SDS011;4981;50.966;4.842;2022-11-20T13:21:13;5.70;;;2.50;;
9884;SDS011;4981;50.966;4.842;2022-11-20T13:23:44;4.77;;;2.93;;
9884;SDS011;4981;50.966;4.842;2022-11-20T13:26:17;7.73;;;3.70;;
9884;SDS011;4981;50.966;4.842;2022-11-20T13:28:46;6.97;;;3.17;;
9884;SDS011;4981;50.966;4.842;2022-11-20T13:31:29;16.57;;;10.53;;
9884;SDS011;4981;50.966;4.842;2022-11-20T13:34:02;11.00;;;3.40;;
9884;SDS011;4981;50.966;4.842;2022-11-20T13:36:32;9.57;;;4.03;;
9884;SDS011;4981;50.966;4.842;2022-11-20T13:39:01;8.27;;;6.53;;
9884;SDS011;4981;50.966;4.842;2022-11-20T13:41:31;10.47;;;4.90;;
9884;SDS011;4981;50.966;4.842;2022-11-20T13:44:10;19.70;;;13.13;;
9884;SDS011;4981;50.966;4.842;2022-11-20T13:46:42;18.20;;;14.37;;
9884;SDS011;4981;50.966;4.842;2022-11-20T13:49:16;9.10;;;3.77;;
9884;SDS011;4981;50.966;4.842;2022-11-20T13:51:46;16.60;;;9.53;;
9884;SDS011;4981;50.966;4.842;2022-11-20T13:54:28;7.60;;;3.17;;
9884;SDS011;4981;50.966;4.842;2022-11-20T14:00:21;9.63;;;2.87;;
9884;SDS011;4981;50.966;4.842;2022-11-20T14:02:52;7.87;;;2.70;;
9884;SDS011;4981;50.966;4.842;2022-11-20T14:05:27;7.33;;;2.93;;
9884;SDS011;4981;50.966;4.842;2022-11-20T14:07:57;4.70;;;2.80;;
9884;SDS011;4981;50.966;4.842;2022-11-20T14:10:25;7.93;;;2.40;;
9884;SDS011;4981;50.966;4.842;2022-11-20T14:12:56;7.10;;;2.50;;
9884;SDS011;4981;50.966;4.842;2022-11-20T14:15:24;6.10;;;2.00;;
9884;SDS011;4981;50.966;4.842;2022-11-20T14:17:53;3.57;;;2.00;;
9884;SDS011;4981;50.966;4.842;2022-11-20T14:20:21;5.03;;;2.03;;
9884;SDS011;4981;50.966;4.842;2022-11-20T14:22:52;7.80;;;2.30;;
9884;SDS011;4981;50.966;4.842;2022-11-20T14:25:21;5.73;;;2.20;;
9884;SDS011;4981;50.966;4.842;2022-11-20T14:27:52;4.90;;;1.90;;
9884;SDS011;4981;50.966;4.842;2022-11-20T14:30:23;7.50;;;2.00;;
9884;SDS011;4981;50.966;4.842;2022-11-20T14:32:53;3.90;;;2.00;;
9884;SDS011;4981;50.966;4.842;2022-11-20T14:35:24;6.10;;;1.70;;
9884;SDS011;4981;50.966;4.842;2022-11-20T14:37:53;4.87;;;1.87;;
9884;SDS011;4981;50.966;4.842;2022-11-20T14:40:24;7.80;;;2.23;;
9884;SDS011;4981;50.966;4.842;2022-11-20T14:42:54;6.63;;;2.40;;
9884;SDS011;4981;50.966;4.842;2022-11-20T14:45:24;4.40;;;2.30;;
9884;SDS011;4981;50.966;4.842;2022-11-20T14:47:52;6.27;;;2.57;;
9884;SDS011;4981;50.966;4.842;2022-11-20T14:50:22;5.23;;;2.50;;
9884;SDS011;4981;50.966;4.842;2022-11-20T14:52:52;5.43;;;2.97;;
9884;SDS011;4981;50.966;4.842;2022-11-20T14:55:27;3.50;;;2.07;;
9884;SDS011;4981;50.966;4.842;2022-11-20T14:57:57;3.90;;;2.33;;
9884;SDS011;4981;50.966;4.842;2022-11-20T15:00:27;5.07;;;2.10;;
9884;SDS011;4981;50.966;4.842;2022-11-20T15:02:55;4.27;;;1.97;;
9884;SDS011;4981;50.966;4.842;2022-11-20T15:05:23;3.90;;;2.60;;
9884;SDS011;4981;50.966;4.842;2022-11-20T15:08:03;3.00;;;2.10;;
9884;SDS011;4981;50.966;4.842;2022-11-20T15:10:32;2.23;;;1.50;;
9884;SDS011;4981;50.966;4.842;2022-11-20T15:13:00;3.53;;;2.20;;
9884;SDS011;4981;50.966;4.842;2022-11-20T15:15:32;4.63;;;2.27;;
9884;SDS011;4981;50.966;4.842;2022-11-20T15:18:09;3.20;;;1.90;;